Aérodrome :
LOGIN :

S'inscrire | Disclaimer

   EN    FR    IT 

 










Légende :    VFR   VFR Marginal   IFR   IFR Intensif   IFR Très Intensif
Visi : 
Plafond : 
>= 8 km
>= 3000ft
5 à 8 km
1000 à 3000 ft
1500m à 5 km
500 à 1000 ft
800 à 1500m
200 à 500 ft
< 800m
< 200 ft
Symboles :   Orages  Brouillard  Fortes neiges  Fortes précipitations  Vent > 20 kt
SIGMETs :   Divers  Orages  Givrage  Turbulence  Onde Orograph.  Cendres Volcan.






- Altitude de l'aérodrome : 313 ft


LFQA - Reims-Prunay

DERNIER METAR :
  • 282230Z AUTO 09002KT 3900 BR FEW002 OVC040 05/05 Q1014

METARs EXPIRÉS :
  • 282200Z AUTO 08003KT 4100 BR BKN002 BKN028 OVC037 05/05 Q1014
  • 282130Z AUTO 08002KT 2200 BR FEW001 OVC036 05/05 Q1014
  • 282100Z AUTO 06004KT 0700 FG VV/// 04/04 Q1014
  • 282030Z AUTO 06004KT 340V080 3000 BR NSC 04/04 Q1013
  • 282000Z AUTO 07004KT 6000 NSC 05/04 Q1013

TAF N/A



MET'MAP, la Météo Aéronautique d'un coup d'oeil ! - Copyright ORBIFLY Décembre 2007 - Disclaimer

ORBIFLY MET'MAP TEAM :

Programmation & Développement : Alexandra Zaïnal
Sur une idée originale de : Baudouin d'Aumeries
Soutien technique & logistique : Manuel Goepfert
Assistance : Marc-Olivier Méhu




SOURCES & CREDITS :

   NOAA